createdAt,value
2019-01-24T00:02:26.339Z,43.00
2019-01-24T00:04:54.494Z,44.33
2019-01-24T00:07:21.727Z,41.90
2019-01-24T00:09:47.972Z,43.37
2019-01-24T00:12:13.947Z,45.23
2019-01-24T00:14:39.882Z,43.10
2019-01-24T00:17:05.804Z,43.47
2019-01-24T00:19:31.784Z,41.57
2019-01-24T00:21:58.330Z,38.37
2019-01-24T00:24:24.266Z,38.87
2019-01-24T00:26:50.260Z,43.97
2019-01-24T00:29:16.197Z,59.13
2019-01-24T00:31:42.153Z,56.00
2019-01-24T00:34:10.018Z,50.30
2019-01-24T00:36:36.262Z,44.67
2019-01-24T00:39:06.100Z,48.43
2019-01-24T00:41:32.565Z,54.00
2019-01-24T00:43:58.498Z,56.00
2019-01-24T00:46:24.931Z,44.90
2019-01-24T00:48:51.222Z,53.03
2019-01-24T00:51:17.168Z,38.93
2019-01-24T00:53:43.100Z,33.70
2019-01-24T00:56:09.176Z,46.50
2019-01-24T00:58:35.126Z,51.27
2019-01-24T01:01:01.066Z,52.77
2019-01-24T01:03:27.035Z,37.20
2019-01-24T01:05:53.043Z,32.93
2019-01-24T01:08:18.981Z,31.30
2019-01-24T01:10:45.795Z,36.87
2019-01-24T01:13:11.734Z,45.07
2019-01-24T01:15:37.870Z,26.93
2019-01-24T01:18:04.340Z,24.70
2019-01-24T01:20:30.273Z,24.63
2019-01-24T01:22:57.803Z,21.90
2019-01-24T01:25:23.761Z,21.83
2019-01-24T01:27:49.713Z,22.17
2019-01-24T01:30:18.262Z,26.67
2019-01-24T01:32:44.586Z,27.30
2019-01-24T01:35:11.025Z,20.30
2019-01-24T01:37:37.054Z,26.13
2019-01-24T01:40:06.624Z,29.60
2019-01-24T01:42:32.747Z,41.70
2019-01-24T01:45:00.381Z,44.93
2019-01-24T01:47:27.886Z,48.93
2019-01-24T01:49:54.021Z,34.37
2019-01-24T01:52:19.959Z,23.17
2019-01-24T01:54:45.963Z,29.60
2019-01-24T01:57:11.890Z,30.60
2019-01-24T01:59:37.824Z,38.77
2019-01-24T02:02:03.825Z,30.13
2019-01-24T02:04:30.877Z,30.80
2019-01-24T02:06:57.327Z,26.73
2019-01-24T02:09:23.304Z,23.23
2019-01-24T02:11:49.240Z,20.93
2019-01-24T02:14:15.167Z,17.33
2019-01-24T02:16:41.474Z,15.83
2019-01-24T02:19:07.519Z,15.60
2019-01-24T02:21:33.450Z,14.33
2019-01-24T02:23:59.820Z,14.90
2019-01-24T02:26:26.572Z,13.93
2019-01-24T02:28:52.512Z,14.70
2019-01-24T02:31:18.500Z,13.73
2019-01-24T02:33:44.420Z,13.90
2019-01-24T02:36:10.700Z,14.53
2019-01-24T02:38:36.911Z,14.63
2019-01-24T02:41:04.634Z,16.27
2019-01-24T02:43:30.901Z,15.90
2019-01-24T02:45:57.160Z,15.43
2019-01-24T02:48:23.099Z,14.93
2019-01-24T02:50:49.041Z,14.43
2019-01-24T02:53:15.833Z,14.23
2019-01-24T02:55:41.877Z,14.30
2019-01-24T02:58:07.916Z,14.07
2019-01-24T03:00:33.928Z,13.50
2019-01-24T03:02:59.849Z,14.13
2019-01-24T03:05:25.882Z,14.20
2019-01-24T03:07:53.007Z,14.07
2019-01-24T03:10:19.465Z,13.40
2019-01-24T03:12:45.499Z,14.23
2019-01-24T03:15:21.463Z,15.03
2019-01-24T03:17:48.092Z,14.57
2019-01-24T03:20:16.037Z,15.63
2019-01-24T03:22:43.198Z,22.17
2019-01-24T03:25:12.028Z,30.17
2019-01-24T03:27:37.954Z,27.27
2019-01-24T03:30:18.164Z,27.40
2019-01-24T03:32:44.115Z,22.80
2019-01-24T03:35:13.032Z,19.67
2019-01-24T03:37:39.059Z,18.07
2019-01-24T03:40:08.958Z,15.77
2019-01-24T03:42:34.882Z,20.00
2019-01-24T03:45:01.000Z,19.97
2019-01-24T03:47:26.925Z,17.80
2019-01-24T03:49:52.869Z,14.43
2019-01-24T03:52:18.821Z,27.73
2019-01-24T03:54:44.749Z,41.73
2019-01-24T03:57:12.595Z,41.07
2019-01-24T03:59:38.765Z,43.63
2019-01-24T04:02:04.694Z,50.90
2019-01-24T04:04:30.614Z,57.77
2019-01-24T04:06:57.479Z,46.43
2019-01-24T04:09:25.385Z,37.50
2019-01-24T04:11:51.319Z,24.27
2019-01-24T04:14:17.290Z,20.87
2019-01-24T04:16:43.819Z,19.60
2019-01-24T04:19:09.875Z,20.13
2019-01-24T04:21:37.076Z,19.30
2019-01-24T04:24:03.218Z,20.67
2019-01-24T04:26:29.156Z,17.03
2019-01-24T04:28:55.977Z,17.50
2019-01-24T04:31:21.904Z,21.83
2019-01-24T04:33:47.834Z,29.53
2019-01-24T04:36:14.514Z,29.70
2019-01-24T04:38:40.425Z,26.77
2019-01-24T04:41:07.265Z,22.73
2019-01-24T04:43:33.229Z,22.40
2019-01-24T04:46:00.862Z,22.13
2019-01-24T04:48:28.523Z,21.40
2019-01-24T04:50:54.513Z,21.27
2019-01-24T04:53:20.468Z,20.63
2019-01-24T04:55:46.381Z,23.83
2019-01-24T04:58:12.359Z,29.13
2019-01-24T05:00:38.284Z,53.73
2019-01-24T05:03:05.027Z,49.23
2019-01-24T05:05:31.291Z,40.60
2019-01-24T05:07:57.252Z,31.90
2019-01-24T05:10:24.877Z,27.77
2019-01-24T05:12:51.181Z,29.27
2019-01-24T05:15:17.400Z,26.97
2019-01-24T05:17:43.732Z,22.37
2019-01-24T05:20:11.921Z,22.57
2019-01-24T05:22:39.876Z,37.03
2019-01-24T05:25:08.603Z,44.47
2019-01-24T05:27:34.572Z,41.53
2019-01-24T05:30:00.656Z,46.90
2019-01-24T05:32:27.073Z,43.27
2019-01-24T05:34:53.354Z,37.33
2019-01-24T05:37:20.428Z,32.67
2019-01-24T05:39:46.777Z,31.57
2019-01-24T05:42:14.144Z,53.37
2019-01-24T05:44:40.475Z,42.33
2019-01-24T05:47:06.444Z,46.30
2019-01-24T05:49:32.424Z,63.67
2019-01-24T05:51:58.375Z,58.07
2019-01-24T05:54:26.022Z,51.63
2019-01-24T05:56:52.523Z,54.67
2019-01-24T05:59:19.565Z,81.63
2019-01-24T06:01:46.183Z,86.83
2019-01-24T06:04:12.467Z,55.63
2019-01-24T06:06:38.410Z,48.23
2019-01-24T06:09:05.844Z,42.10
2019-01-24T06:11:31.860Z,40.23
2019-01-24T06:13:58.605Z,45.93
2019-01-24T06:16:25.347Z,47.47
2019-01-24T06:18:54.114Z,46.60
2019-01-24T06:21:20.254Z,41.67
2019-01-24T06:23:46.624Z,41.60
2019-01-24T06:26:13.139Z,55.03
2019-01-24T06:28:39.069Z,66.73
2019-01-24T06:31:05.418Z,66.60
2019-01-24T06:33:31.444Z,71.13
2019-01-24T06:35:57.965Z,69.13
2019-01-24T06:38:24.094Z,62.13
2019-01-24T06:40:50.312Z,62.83
2019-01-24T06:43:17.046Z,65.80
2019-01-24T06:45:42.976Z,72.13
2019-01-24T06:48:09.347Z,69.97
2019-01-24T06:50:35.299Z,79.30
2019-01-24T06:53:01.216Z,81.90
2019-01-24T06:55:27.487Z,126.10
2019-01-24T06:57:53.824Z,181.93
2019-01-24T07:00:20.160Z,146.33
2019-01-24T07:02:46.260Z,123.07
2019-01-24T07:05:12.689Z,97.13
2019-01-24T07:07:38.618Z,88.90
2019-01-24T07:10:10.564Z,105.27
2019-01-24T07:12:36.696Z,113.10
2019-01-24T07:15:06.128Z,104.60
2019-01-24T07:17:32.387Z,81.87
2019-01-24T07:19:58.327Z,70.47
2019-01-24T07:22:24.255Z,68.20
2019-01-24T07:24:50.300Z,77.83
2019-01-24T07:27:16.214Z,91.93
2019-01-24T07:29:42.139Z,81.47
2019-01-24T07:32:09.117Z,78.03
2019-01-24T07:34:35.052Z,73.00
2019-01-24T07:37:00.977Z,92.70
2019-01-24T07:39:26.958Z,71.37
2019-01-24T07:41:52.924Z,72.90
2019-01-24T07:44:20.751Z,73.27
2019-01-24T07:46:46.750Z,67.80
2019-01-24T07:49:12.708Z,79.93
2019-01-24T07:51:38.635Z,83.50
2019-01-24T07:54:04.611Z,87.07
2019-01-24T07:56:30.542Z,84.83
2019-01-24T07:58:58.922Z,76.50
2019-01-24T08:01:25.022Z,80.03
2019-01-24T08:03:50.955Z,98.63
2019-01-24T08:06:17.380Z,114.97
2019-01-24T08:08:45.189Z,84.20
2019-01-24T08:11:11.124Z,81.80
2019-01-24T08:13:38.059Z,96.87
2019-01-24T08:16:04.128Z,99.83
2019-01-24T08:18:30.040Z,95.63
2019-01-24T08:20:55.981Z,101.83
2019-01-24T08:23:22.254Z,96.77
2019-01-24T08:25:48.388Z,97.17
2019-01-24T08:28:16.652Z,98.77
2019-01-24T08:30:45.995Z,94.93
2019-01-24T08:33:12.070Z,98.47
2019-01-24T08:35:38.045Z,102.30
2019-01-24T08:38:04.494Z,104.93
2019-01-24T08:40:30.840Z,106.23
2019-01-24T08:42:58.792Z,105.67
2019-01-24T08:45:24.767Z,101.40
2019-01-24T08:47:50.805Z,106.43
2019-01-24T08:50:19.877Z,107.97
2019-01-24T08:52:45.887Z,103.10
2019-01-24T08:55:30.568Z,102.30
2019-01-24T08:57:57.411Z,102.83
2019-01-24T09:00:23.375Z,102.83
2019-01-24T09:02:50.599Z,101.10
2019-01-24T09:05:17.753Z,141.73
2019-01-24T09:07:43.725Z,99.37
2019-01-24T09:10:13.486Z,89.73
2019-01-24T09:12:39.477Z,85.53
2019-01-24T09:15:09.043Z,79.33
2019-01-24T09:17:35.606Z,77.97
2019-01-24T09:20:03.281Z,74.93
2019-01-24T09:22:29.243Z,68.03
2019-01-24T09:24:55.258Z,61.50
2019-01-24T09:27:21.227Z,61.73
2019-01-24T09:29:47.146Z,61.00
2019-01-24T09:32:13.079Z,61.43
2019-01-24T09:34:39.062Z,62.60
2019-01-24T09:37:05.207Z,69.97
2019-01-24T09:39:31.166Z,68.73
2019-01-24T09:41:57.130Z,60.00
2019-01-24T09:44:23.362Z,54.80
2019-01-24T09:46:49.301Z,53.57
2019-01-24T09:49:15.610Z,48.30
2019-01-24T09:51:42.046Z,39.17
2019-01-24T09:54:07.980Z,29.50
2019-01-24T09:56:33.974Z,10.67
2019-01-24T09:59:00.706Z,8.53
2019-01-24T10:01:27.250Z,9.03
2019-01-24T10:03:54.015Z,9.13
2019-01-24T10:06:19.937Z,9.63
2019-01-24T10:08:45.868Z,9.67
2019-01-24T10:11:11.833Z,10.63
2019-01-24T10:13:37.951Z,12.40
2019-01-24T10:16:07.155Z,15.10
2019-01-24T10:18:33.161Z,15.83
2019-01-24T10:20:59.587Z,18.30
2019-01-24T10:23:25.515Z,17.17
2019-01-24T10:25:51.675Z,16.67
2019-01-24T10:28:17.604Z,11.40
2019-01-24T10:30:43.904Z,14.67
2019-01-24T10:33:10.823Z,13.97
2019-01-24T10:35:37.066Z,15.47
2019-01-24T10:38:05.300Z,14.53
2019-01-24T10:40:32.802Z,16.13
2019-01-24T10:42:59.639Z,16.17
2019-01-24T10:45:26.180Z,15.83
2019-01-24T10:47:52.597Z,14.97
2019-01-24T10:50:22.087Z,14.70
2019-01-24T10:52:48.226Z,16.30
2019-01-24T10:55:17.002Z,12.57
2019-01-24T10:57:43.334Z,14.03
2019-01-24T11:00:21.060Z,15.70
2019-01-24T11:02:47.306Z,13.67
2019-01-24T11:05:18.173Z,14.70
2019-01-24T11:07:44.334Z,12.83
2019-01-24T11:10:12.519Z,11.80
2019-01-24T11:12:38.740Z,12.97
2019-01-24T11:15:08.507Z,12.43
2019-01-24T11:17:35.376Z,12.70
2019-01-24T11:20:01.300Z,13.17
2019-01-24T11:22:27.294Z,13.03
2019-01-24T11:24:53.271Z,14.13
2019-01-24T11:27:19.239Z,15.23
2019-01-24T11:29:46.295Z,16.70
2019-01-24T11:32:12.742Z,16.00
2019-01-24T11:34:38.669Z,16.77
2019-01-24T11:37:04.662Z,13.63
2019-01-24T11:39:30.595Z,13.63
2019-01-24T11:41:56.518Z,13.70
2019-01-24T11:44:22.521Z,13.70
2019-01-24T11:46:48.768Z,14.17
2019-01-24T11:49:15.516Z,14.33
2019-01-24T11:51:41.477Z,14.80
2019-01-24T11:54:07.521Z,15.23
2019-01-24T11:56:33.595Z,16.40
2019-01-24T11:58:59.553Z,15.73
2019-01-24T12:01:25.475Z,14.63
2019-01-24T12:03:51.409Z,13.80
2019-01-24T12:06:17.676Z,14.67
2019-01-24T12:08:43.642Z,13.63
2019-01-24T12:11:09.568Z,13.83
2019-01-24T12:13:35.548Z,14.80
2019-01-24T12:16:04.749Z,13.80
2019-01-24T12:18:30.745Z,14.13
2019-01-24T12:20:56.756Z,14.60
2019-01-24T12:23:22.679Z,14.30
2019-01-24T12:25:49.330Z,15.60
2019-01-24T12:28:15.333Z,15.67
2019-01-24T12:30:41.256Z,14.13
2019-01-24T12:33:07.192Z,14.40
2019-01-24T12:35:33.156Z,13.30
2019-01-24T12:37:59.211Z,12.83
2019-01-24T12:40:26.132Z,13.80
2019-01-24T12:42:52.093Z,15.27
2019-01-24T12:45:32.699Z,14.13
2019-01-24T12:47:58.883Z,13.53
2019-01-24T12:50:24.814Z,14.13
2019-01-24T12:52:51.256Z,14.90
2019-01-24T12:55:17.438Z,14.53
2019-01-24T12:57:43.682Z,15.03
2019-01-24T13:00:15.956Z,17.03
2019-01-24T13:02:41.938Z,16.50
2019-01-24T13:05:08.687Z,18.10
2019-01-24T13:07:34.694Z,19.27
2019-01-24T13:10:00.762Z,19.73
2019-01-24T13:12:27.063Z,21.97
2019-01-24T13:14:55.241Z,24.23
2019-01-24T13:17:21.622Z,22.87
2019-01-24T13:19:47.594Z,21.43
2019-01-24T13:22:13.861Z,20.20
2019-01-24T13:24:40.095Z,21.83
2019-01-24T13:27:06.029Z,22.53
2019-01-24T13:29:32.249Z,22.30
2019-01-24T13:31:58.241Z,23.37
2019-01-24T13:34:24.168Z,21.90
2019-01-24T13:36:50.097Z,21.97
2019-01-24T13:39:16.076Z,21.97
2019-01-24T13:41:42.518Z,22.33
2019-01-24T13:44:08.740Z,23.17
2019-01-24T13:46:34.723Z,23.17
2019-01-24T13:49:00.652Z,23.70
2019-01-24T13:51:26.572Z,23.13
2019-01-24T13:53:52.862Z,25.97
2019-01-24T13:56:18.798Z,25.47
2019-01-24T13:58:44.728Z,26.07
2019-01-24T14:01:10.718Z,24.07
2019-01-24T14:03:42.007Z,24.97
2019-01-24T14:06:06.003Z,24.87
2019-01-24T14:08:31.964Z,23.03
2019-01-24T14:10:58.096Z,22.47
2019-01-24T14:13:24.519Z,21.77
2019-01-24T14:15:50.526Z,22.37
2019-01-24T14:18:16.559Z,24.23
2019-01-24T14:20:42.555Z,21.87
2019-01-24T14:23:08.515Z,20.30
2019-01-24T14:25:34.663Z,20.47
2019-01-24T14:28:00.593Z,20.03
2019-01-24T14:30:27.932Z,22.77
2019-01-24T14:32:53.967Z,23.03
2019-01-24T14:35:20.085Z,22.83
2019-01-24T14:37:46.184Z,22.00
2019-01-24T14:40:13.946Z,22.13
2019-01-24T14:42:40.329Z,17.93
2019-01-24T14:45:18.710Z,18.57
2019-01-24T14:47:45.633Z,18.43
2019-01-24T14:50:15.161Z,24.77
2019-01-24T14:52:41.216Z,26.13
2019-01-24T14:55:09.884Z,23.77
2019-01-24T14:57:38.235Z,23.03
2019-01-24T15:00:14.112Z,19.43
2019-01-24T15:02:41.368Z,20.00
2019-01-24T15:05:09.307Z,21.67
2019-01-24T15:07:35.277Z,20.40
2019-01-24T15:10:01.504Z,22.00
2019-01-24T15:12:29.988Z,20.27
2019-01-24T15:14:55.904Z,20.43
2019-01-24T15:17:22.466Z,21.57
2019-01-24T15:19:48.405Z,21.03
2019-01-24T15:22:14.670Z,20.13
2019-01-24T15:24:40.609Z,19.40
2019-01-24T15:27:06.534Z,21.40
2019-01-24T15:29:33.401Z,21.60
2019-01-24T15:31:59.338Z,22.43
2019-01-24T15:34:25.410Z,21.00
2019-01-24T15:36:51.413Z,21.10
2019-01-24T15:39:17.349Z,20.63
2019-01-24T15:41:43.312Z,14.13
2019-01-24T15:44:09.307Z,15.53
2019-01-24T15:46:35.315Z,16.13
2019-01-24T15:49:01.302Z,19.80
2019-01-24T15:51:27.262Z,23.67
2019-01-24T15:53:53.203Z,25.93
2019-01-24T15:56:19.234Z,22.60
2019-01-24T15:58:45.222Z,21.67
2019-01-24T16:01:11.159Z,21.50
2019-01-24T16:03:37.693Z,23.57
2019-01-24T16:06:04.106Z,21.37
2019-01-24T16:08:30.039Z,23.47
2019-01-24T16:10:56.291Z,28.47
2019-01-24T16:13:22.788Z,27.20
2019-01-24T16:15:49.540Z,25.60
2019-01-24T16:18:15.685Z,25.90
2019-01-24T16:20:42.053Z,26.67
2019-01-24T16:23:08.458Z,26.37
2019-01-24T16:25:35.257Z,25.67
2019-01-24T16:28:01.257Z,24.97
2019-01-24T16:30:30.359Z,25.10
2019-01-24T16:32:56.527Z,24.63
2019-01-24T16:35:22.896Z,25.30
2019-01-24T16:37:49.006Z,27.47
2019-01-24T16:40:16.946Z,29.40
2019-01-24T16:42:42.940Z,31.00
2019-01-24T16:45:14.931Z,29.80
2019-01-24T16:47:40.967Z,30.87
2019-01-24T16:50:10.365Z,29.30
2019-01-24T16:52:36.950Z,29.27
2019-01-24T16:55:06.004Z,32.40
2019-01-24T16:57:32.217Z,40.30
2019-01-24T16:59:58.550Z,43.47
2019-01-24T17:02:24.611Z,36.77
2019-01-24T17:04:50.726Z,40.73
2019-01-24T17:07:16.955Z,40.53
2019-01-24T17:09:42.896Z,39.03
2019-01-24T17:12:08.889Z,39.33
2019-01-24T17:14:34.829Z,39.07
2019-01-24T17:17:01.594Z,49.03
2019-01-24T17:19:28.915Z,41.90
2019-01-24T17:21:55.166Z,42.93
2019-01-24T17:24:22.165Z,46.70
2019-01-24T17:26:48.653Z,45.00
2019-01-24T17:29:15.209Z,43.60
2019-01-24T17:31:41.158Z,44.00
2019-01-24T17:34:08.121Z,45.17
2019-01-24T17:36:34.059Z,49.60
2019-01-24T17:38:59.991Z,49.23
2019-01-24T17:41:26.080Z,51.37
2019-01-24T17:43:52.788Z,59.37
2019-01-24T17:46:18.722Z,59.10
2019-01-24T17:48:44.698Z,58.67
2019-01-24T17:51:10.633Z,57.47
2019-01-24T17:53:36.565Z,61.43
2019-01-24T17:56:03.688Z,57.87
2019-01-24T17:58:29.623Z,54.40
2019-01-24T18:00:55.538Z,58.63
2019-01-24T18:03:21.516Z,62.30
2019-01-24T18:05:48.413Z,67.17
2019-01-24T18:08:15.373Z,71.93
2019-01-24T18:10:44.030Z,86.30
2019-01-24T18:13:09.964Z,93.70
2019-01-24T18:15:36.191Z,102.43
2019-01-24T18:18:05.999Z,102.60
2019-01-24T18:20:33.848Z,105.17
2019-01-24T18:23:00.775Z,131.37
2019-01-24T18:25:28.268Z,149.77
2019-01-24T18:27:54.316Z,167.33
2019-01-24T18:30:25.254Z,172.77
2019-01-24T18:32:51.276Z,160.43
2019-01-24T18:35:17.501Z,158.93
2019-01-24T18:37:43.656Z,157.80
2019-01-24T18:40:13.265Z,176.33
2019-01-24T18:42:39.202Z,151.57
2019-01-24T18:45:09.190Z,253.70
2019-01-24T18:47:35.665Z,224.77
2019-01-24T18:50:02.219Z,158.03
2019-01-24T18:52:28.143Z,127.70
2019-01-24T18:54:54.420Z,114.43
2019-01-24T18:57:20.360Z,97.73
2019-01-24T18:59:46.542Z,95.83
2019-01-24T19:02:12.536Z,92.07
2019-01-24T19:04:40.909Z,104.17
2019-01-24T19:07:07.058Z,97.67
2019-01-24T19:09:33.048Z,94.70
2019-01-24T19:11:58.989Z,191.37
2019-01-24T19:14:25.065Z,116.37
2019-01-24T19:16:52.528Z,123.20
2019-01-24T19:19:18.495Z,121.90
2019-01-24T19:21:44.716Z,110.17
2019-01-24T19:24:10.857Z,116.60
2019-01-24T19:26:39.480Z,108.77
2019-01-24T19:29:05.501Z,103.53
2019-01-24T19:31:31.476Z,132.10
2019-01-24T19:33:57.423Z,146.27
2019-01-24T19:36:23.347Z,124.47
2019-01-24T19:38:53.189Z,113.70
2019-01-24T19:41:17.300Z,127.77
2019-01-24T19:43:43.244Z,93.97
2019-01-24T19:46:09.239Z,133.33
2019-01-24T19:48:35.162Z,134.13
2019-01-24T19:51:01.444Z,119.83
2019-01-24T19:53:27.519Z,120.27
2019-01-24T19:55:53.649Z,124.33
2019-01-24T19:58:19.990Z,129.30
2019-01-24T20:00:46.206Z,142.73
2019-01-24T20:03:12.351Z,157.87
2019-01-24T20:05:38.287Z,161.83
2019-01-24T20:08:04.680Z,154.57
2019-01-24T20:10:30.753Z,151.63
2019-01-24T20:12:57.210Z,132.53
2019-01-24T20:15:27.674Z,129.67
2019-01-24T20:17:53.826Z,123.77
2019-01-24T20:20:21.468Z,107.53
2019-01-24T20:22:48.164Z,98.17
2019-01-24T20:25:23.210Z,86.93
2019-01-24T20:27:49.315Z,84.57
2019-01-24T20:30:23.474Z,84.67
2019-01-24T20:32:49.653Z,77.63
2019-01-24T20:35:22.395Z,82.43
2019-01-24T20:37:48.488Z,75.80
2019-01-24T20:40:15.120Z,81.43
2019-01-24T20:42:41.285Z,82.33
2019-01-24T20:45:09.685Z,118.67
2019-01-24T20:47:35.815Z,93.17
2019-01-24T20:50:04.554Z,82.60
2019-01-24T20:52:30.539Z,80.07
2019-01-24T20:55:00.973Z,77.00
2019-01-24T20:57:29.574Z,76.67
2019-01-24T20:59:55.570Z,77.63
2019-01-24T21:02:23.933Z,82.60
2019-01-24T21:04:53.029Z,78.43
2019-01-24T21:07:19.002Z,78.53
2019-01-24T21:09:45.090Z,76.03
2019-01-24T21:12:11.032Z,62.27
2019-01-24T21:14:37.024Z,56.87
2019-01-24T21:17:02.983Z,44.87
2019-01-24T21:19:29.153Z,40.23
2019-01-24T21:21:55.304Z,34.60
2019-01-24T21:24:21.241Z,30.27
2019-01-24T21:26:47.169Z,29.43
2019-01-24T21:29:13.417Z,30.27
2019-01-24T21:31:40.763Z,29.67
2019-01-24T21:34:06.683Z,28.13
2019-01-24T21:36:32.679Z,26.63
2019-01-24T21:39:01.092Z,23.77
2019-01-24T21:41:27.126Z,28.50
2019-01-24T21:43:53.080Z,23.97
2019-01-24T21:46:19.178Z,21.03
2019-01-24T21:48:45.743Z,21.23
2019-01-24T21:51:11.707Z,22.90
2019-01-24T21:53:37.733Z,23.30
2019-01-24T21:56:03.929Z,22.93
2019-01-24T21:58:29.901Z,21.80
2019-01-24T22:00:55.869Z,19.73
2019-01-24T22:03:22.091Z,20.87
2019-01-24T22:05:49.965Z,20.77
2019-01-24T22:08:15.903Z,20.73
2019-01-24T22:10:42.033Z,20.17
2019-01-24T22:13:07.994Z,19.80
2019-01-24T22:15:34.037Z,19.73
2019-01-24T22:17:59.975Z,20.63
2019-01-24T22:20:25.970Z,19.83
2019-01-24T22:22:52.099Z,20.30
2019-01-24T22:25:20.651Z,20.73
2019-01-24T22:27:47.041Z,23.20
2019-01-24T22:30:18.868Z,24.33
2019-01-24T22:32:44.788Z,26.83
2019-01-24T22:35:13.332Z,29.63
2019-01-24T22:37:41.055Z,29.10
2019-01-24T22:40:10.382Z,80.30
2019-01-24T22:42:38.476Z,29.90
2019-01-24T22:45:14.108Z,28.13
2019-01-24T22:47:42.295Z,26.63
2019-01-24T22:50:11.435Z,68.28
2019-01-24T22:52:37.392Z,26.70
2019-01-24T22:55:05.319Z,23.93
2019-01-24T22:57:31.278Z,19.93
2019-01-24T22:59:57.204Z,26.53
2019-01-24T23:02:23.442Z,24.60
2019-01-24T23:04:49.373Z,26.07
2019-01-24T23:07:15.322Z,22.37
2019-01-24T23:09:44.277Z,21.27
2019-01-24T23:12:09.159Z,22.70
2019-01-24T23:14:35.081Z,22.07
2019-01-24T23:17:01.051Z,21.07
2019-01-24T23:19:27.109Z,19.03
2019-01-24T23:21:53.042Z,19.63
2019-01-24T23:24:19.034Z,18.63
2019-01-24T23:26:44.956Z,21.67
2019-01-24T23:29:10.892Z,20.87
2019-01-24T23:31:36.937Z,20.40
2019-01-24T23:34:03.973Z,19.70
2019-01-24T23:36:29.908Z,20.17
2019-01-24T23:38:55.979Z,20.70
2019-01-24T23:41:22.319Z,20.97
2019-01-24T23:43:48.260Z,20.90
2019-01-24T23:46:14.247Z,21.77
2019-01-24T23:48:40.166Z,21.63
2019-01-24T23:51:06.092Z,21.83
2019-01-24T23:53:32.039Z,37.00
2019-01-24T23:55:57.971Z,37.83
2019-01-24T23:58:23.895Z,24.27
